Time;durP1;ratioP1;P1;durP2;ratioP2;P2;SDS_P1;SDS_P2;PMS_P1;PMS_P2;Temp;Humidity;BMP_temperature;BMP_pressure;BME280_temperature;BME280_humidity;BME280_pressure;Samples;Min_cycle;Max_cycle;Signal;HPM_P1;HPM_P2
2022/05/03 00:01:15;;;;;;;40.50;14.18;;;5.30;99.90;;;;;;5071883;28;20135;-76
2022/05/03 00:03:50;;;;;;;16.27;10.40;;;5.20;99.90;;;;;;5069637;28;20048;-77
2022/05/03 00:06:36;;;;;;;17.35;10.10;;;5.10;99.90;;;;;;5075571;28;20066;-76
2022/05/03 00:09:07;;;;;;;17.00;10.95;;;5.10;99.90;;;;;;5075858;28;20040;-75
2022/05/03 00:12:03;;;;;;;26.30;14.90;;;5.00;99.90;;;;;;5075608;28;20046;-77
2022/05/03 00:14:56;;;;;;;42.20;16.25;;;5.00;99.90;;;;;;5071464;28;20052;-76
2022/05/03 00:17:22;;;;;;;213.50;22.65;;;4.90;99.90;;;;;;5074686;28;20048;-76
2022/05/03 00:19:48;;;;;;;91.85;15.95;;;4.90;99.90;;;;;;5094262;28;20052;-74
2022/05/03 00:22:15;;;;;;;23.83;11.57;;;4.90;99.90;;;;;;5095922;28;20048;-76
2022/05/03 00:24:42;;;;;;;33.03;10.98;;;4.90;99.90;;;;;;5094805;28;20063;-77
2022/05/03 00:27:07;;;;;;;7.60;5.15;;;4.90;99.90;;;;;;5095713;28;20386;-75
2022/05/03 00:29:33;;;;;;;19.20;12.68;;;4.80;99.90;;;;;;5094924;28;20044;-75
2022/05/03 00:32:02;;;;;;;24.95;13.95;;;4.80;99.90;;;;;;5095687;28;20463;-75
2022/05/03 00:34:31;;;;;;;21.58;13.00;;;4.80;99.90;;;;;;5095547;28;20040;-76
2022/05/03 00:36:56;;;;;;;22.77;15.43;;;4.80;99.90;;;;;;5094651;28;20058;-77
2022/05/03 00:39:22;;;;;;;34.28;18.10;;;4.80;99.90;;;;;;5094585;28;20036;-75
2022/05/03 00:42:17;;;;;;;25.77;16.20;;;4.80;99.90;;;;;;5095332;28;20036;-76
2022/05/03 00:44:55;;;;;;;23.48;14.25;;;4.80;99.90;;;;;;5094327;28;20094;-77
2022/05/03 00:47:36;;;;;;;22.23;14.15;;;4.80;99.90;;;;;;5095015;28;20437;-75
2022/05/03 00:50:07;;;;;;;17.52;11.55;;;4.80;99.90;;;;;;5095169;28;20044;-76
2022/05/03 00:52:53;;;;;;;16.63;11.38;;;4.70;99.90;;;;;;5095363;28;20044;-75
2022/05/03 00:55:43;;;;;;;21.92;13.55;;;4.70;99.90;;;;;;5094168;28;20108;-75
2022/05/03 00:58:15;;;;;;;20.27;14.00;;;4.70;99.90;;;;;;5095222;28;20059;-76
2022/05/03 01:00:54;;;;;;;20.52;14.48;;;4.60;99.90;;;;;;5093884;28;20036;-75
2022/05/03 01:03:29;;;;;;;16.33;12.93;;;4.60;99.90;;;;;;5095121;28;20123;-76
2022/05/03 01:06:24;;;;;;;22.90;15.25;;;4.70;99.90;;;;;;5093994;28;20040;-74
2022/05/03 01:09:05;;;;;;;28.08;15.95;;;4.70;99.90;;;;;;5094972;28;20058;-76
2022/05/03 01:11:54;;;;;;;23.08;15.43;;;4.70;99.90;;;;;;5094878;28;20121;-75
2022/05/03 01:14:36;;;;;;;17.23;13.00;;;4.60;99.90;;;;;;5077180;28;20036;-76
2022/05/03 01:17:16;;;;;;;19.85;14.05;;;4.60;99.90;;;;;;5093881;28;20086;-75
2022/05/03 01:19:48;;;;;;;20.77;13.80;;;4.50;99.90;;;;;;5073190;28;20048;-76
2022/05/03 01:22:32;;;;;;;21.50;15.18;;;4.50;99.90;;;;;;5073514;28;20056;-76
2022/05/03 01:25:15;;;;;;;21.10;15.20;;;4.40;99.90;;;;;;5074282;28;20051;-75
2022/05/03 01:27:59;;;;;;;17.23;11.93;;;4.40;99.90;;;;;;5073507;28;20128;-75
2022/05/03 01:30:28;;;;;;;81.53;21.42;;;4.40;99.90;;;;;;5074196;28;20110;-75
2022/05/03 01:33:07;;;;;;;575.75;69.15;;;4.40;99.90;;;;;;5073402;28;20044;-75
2022/05/03 01:35:39;;;;;;;63.55;15.50;;;4.40;99.90;;;;;;5073890;28;20080;-75
2022/05/03 01:38:35;;;;;;;18.40;12.98;;;4.40;99.90;;;;;;5073725;28;20472;-76
2022/05/03 01:41:04;;;;;;;47.35;14.55;;;4.40;99.90;;;;;;5074044;28;20044;-75
2022/05/03 01:43:41;;;;;;;416.05;37.15;;;4.50;99.90;;;;;;5073534;28;20397;-76
2022/05/03 01:46:18;;;;;;;428.80;28.35;;;4.40;99.90;;;;;;5073843;28;20048;-76
2022/05/03 01:52:17;;;;;;;263.35;23.20;;;4.40;99.90;;;;;;5073784;28;20101;-75
2022/05/03 01:55:28;;;;;;;554.25;36.05;;;4.30;99.90;;;;;;5072963;28;20094;-74
2022/05/03 01:58:38;;;;;;;503.13;39.03;;;4.30;99.90;;;;;;5049538;28;20048;-77
2022/05/03 02:01:11;;;;;;;20.13;14.00;;;4.20;99.90;;;;;;5072785;28;20044;-75
2022/05/03 02:04:18;;;;;;;12.98;10.27;;;4.20;99.90;;;;;;5072858;28;20052;-76
2022/05/03 02:06:47;;;;;;;25.13;15.70;;;4.20;99.90;;;;;;5073086;28;20060;-76
2022/05/03 02:09:12;;;;;;;17.52;13.10;;;4.10;99.90;;;;;;5073668;28;20406;-76
2022/05/03 02:12:07;;;;;;;15.27;12.10;;;4.20;99.90;;;;;;5073348;28;20040;-75
2022/05/03 02:14:44;;;;;;;18.58;12.55;;;4.10;99.90;;;;;;5072555;28;20131;-74
2022/05/03 02:17:37;;;;;;;21.42;14.80;;;4.10;99.90;;;;;;5072268;28;20127;-77
2022/05/03 02:20:14;;;;;;;19.52;13.77;;;4.00;99.90;;;;;;5072955;28;20052;-76
2022/05/03 02:22:46;;;;;;;19.90;14.20;;;4.00;99.90;;;;;;5073265;28;20091;-75
2022/05/03 02:25:15;;;;;;;17.77;13.05;;;4.10;99.90;;;;;;5072714;28;20056;-74
2022/05/03 02:28:06;;;;;;;20.20;14.63;;;4.00;99.90;;;;;;5073010;28;20040;-75
2022/05/03 02:30:35;;;;;;;19.92;14.52;;;4.10;99.90;;;;;;5062010;28;20128;-76
2022/05/03 02:33:09;;;;;;;23.13;16.70;;;4.10;99.90;;;;;;5072864;28;20040;-74
2022/05/03 02:35:35;;;;;;;23.88;16.23;;;4.10;99.90;;;;;;5073095;28;20136;-76
2022/05/03 02:38:05;;;;;;;21.70;14.98;;;4.10;99.90;;;;;;5072927;28;20155;-75
2022/05/03 02:40:33;;;;;;;18.45;13.88;;;4.10;99.90;;;;;;5071732;28;20048;-76
2022/05/03 02:42:59;;;;;;;17.13;13.02;;;4.10;99.90;;;;;;5072408;28;20704;-74
2022/05/03 02:45:26;;;;;;;16.23;10.85;;;4.10;99.90;;;;;;5072038;28;20058;-76
2022/05/03 02:48:14;;;;;;;10.13;7.78;;;4.10;99.90;;;;;;5072777;28;20135;-75
2022/05/03 02:50:47;;;;;;;12.50;7.82;;;4.10;99.90;;;;;;5072730;28;20106;-75
2022/05/03 02:53:44;;;;;;;11.55;9.07;;;4.00;99.90;;;;;;5072737;28;20382;-75
2022/05/03 02:56:37;;;;;;;11.18;8.02;;;4.00;99.90;;;;;;5071732;28;20036;-74
2022/05/03 03:01:47;;;;;;;9.68;8.63;;;3.80;99.90;;;;;;5072627;28;20094;-75
2022/05/03 03:02:31;;;;;;;10.57;8.07;;;3.80;99.90;;;;;;5071474;28;20057;-75
2022/05/03 03:05:06;;;;;;;11.90;8.02;;;3.70;99.90;;;;;;5072742;28;20098;-76
2022/05/03 03:07:57;;;;;;;251.43;25.35;;;3.70;99.90;;;;;;5071671;28;20404;-75
2022/05/03 03:10:32;;;;;;;282.73;25.30;;;3.70;99.90;;;;;;5072608;28;20057;-75
2022/05/03 03:13:28;;;;;;;17.02;6.47;;;3.60;99.90;;;;;;5071543;28;20045;-76
2022/05/03 03:15:54;;;;;;;9.63;7.00;;;3.50;99.90;;;;;;5072231;28;20476;-74
2022/05/03 03:18:24;;;;;;;10.35;8.18;;;3.50;99.90;;;;;;5071157;28;20136;-76
2022/05/03 03:20:55;;;;;;;6.80;5.75;;;3.40;99.90;;;;;;5072425;28;20321;-75
2022/05/03 03:23:26;;;;;;;13.07;9.00;;;3.50;99.90;;;;;;5072403;28;20044;-74
2022/05/03 03:25:53;;;;;;;11.38;8.80;;;3.50;99.90;;;;;;5072324;28;20119;-74
2022/05/03 03:28:22;;;;;;;10.35;8.00;;;3.50;99.90;;;;;;5071832;28;20127;-76
2022/05/03 03:30:52;;;;;;;14.63;10.45;;;3.50;99.90;;;;;;5072353;28;20114;-75
2022/05/03 03:33:22;;;;;;;15.07;11.77;;;3.60;99.90;;;;;;5054770;28;20105;-75
2022/05/03 03:35:50;;;;;;;17.63;11.00;;;3.60;99.90;;;;;;5073986;28;20037;-75
2022/05/03 03:38:16;;;;;;;13.20;9.60;;;3.80;99.90;;;;;;5075899;28;20457;-74
2022/05/03 03:40:45;;;;;;;11.40;9.82;;;3.90;99.90;;;;;;5058495;28;20051;-75
2022/05/03 03:43:12;;;;;;;9.70;8.70;;;4.00;99.90;;;;;;5076236;28;20213;-76
2022/05/03 03:45:39;;;;;;;13.32;11.32;;;4.10;99.90;;;;;;5076154;28;20044;-76
2022/05/03 03:48:06;;;;;;;9.80;8.77;;;4.20;99.90;;;;;;5076142;28;20036;-75
2022/05/03 03:50:33;;;;;;;10.80;8.05;;;4.30;99.90;;;;;;5076136;28;20036;-76
2022/05/03 03:52:59;;;;;;;11.90;9.82;;;4.30;99.90;;;;;;5075819;28;20044;-75
2022/05/03 03:55:27;;;;;;;13.38;11.10;;;4.30;99.90;;;;;;5075615;28;20312;-75
2022/05/03 03:57:56;;;;;;;12.30;10.63;;;4.40;99.90;;;;;;5058330;28;20056;-77
2022/05/03 04:00:23;;;;;;;15.68;12.80;;;4.40;99.90;;;;;;5057991;28;20044;-75
2022/05/03 04:02:49;;;;;;;21.88;14.10;;;4.50;99.90;;;;;;5072626;28;20060;-76
2022/05/03 04:05:20;;;;;;;19.75;12.68;;;4.60;99.90;;;;;;5057953;28;20103;-76
2022/05/03 04:07:47;;;;;;;23.52;15.50;;;4.60;99.90;;;;;;5058191;28;20446;-75
2022/05/03 04:10:13;;;;;;;19.83;15.75;;;4.70;99.90;;;;;;5075549;28;20051;-75
2022/05/03 04:12:40;;;;;;;24.33;16.50;;;4.70;99.90;;;;;;5041305;28;20159;-76
2022/05/03 04:15:06;;;;;;;21.77;14.50;;;4.80;99.90;;;;;;5057699;28;20059;-74
2022/05/03 04:17:32;;;;;;;26.42;18.23;;;4.80;99.90;;;;;;5077277;28;20048;-75
2022/05/03 04:19:59;;;;;;;25.38;17.38;;;4.90;99.90;;;;;;5095124;28;20380;-76
2022/05/03 04:22:32;;;;;;;30.77;18.50;;;4.90;99.90;;;;;;5095197;28;20044;-74
2022/05/03 04:24:59;;;;;;;25.45;18.77;;;5.00;99.90;;;;;;5095478;28;20048;-76
2022/05/03 04:27:26;;;;;;;27.85;18.98;;;5.10;99.90;;;;;;5094991;28;20508;-75
2022/05/03 04:29:53;;;;;;;26.63;19.42;;;5.20;99.90;;;;;;5077669;28;20376;-76
2022/05/03 04:32:19;;;;;;;28.50;20.33;;;5.30;99.90;;;;;;5077399;28;20040;-75
2022/05/03 04:34:45;;;;;;;31.10;23.20;;;5.40;99.90;;;;;;5077382;28;20364;-75
2022/05/03 04:37:12;;;;;;;33.30;21.90;;;5.50;99.90;;;;;;5095176;28;20334;-75
2022/05/03 04:39:38;;;;;;;30.73;22.30;;;5.60;99.90;;;;;;5077112;28;20043;-76
2022/05/03 04:42:05;;;;;;;29.60;21.52;;;5.70;99.90;;;;;;5077477;28;20040;-77
2022/05/03 04:44:31;;;;;;;36.72;25.33;;;5.80;99.90;;;;;;5077344;28;20102;-74
2022/05/03 04:46:56;;;;;;;33.28;23.02;;;5.90;99.90;;;;;;5093953;28;20067;-76
2022/05/03 04:49:22;;;;;;;32.72;23.88;;;6.00;99.90;;;;;;5094923;28;20338;-75
2022/05/03 04:51:48;;;;;;;30.90;23.90;;;6.10;99.90;;;;;;5077447;28;20095;-76
2022/05/03 04:54:14;;;;;;;33.60;24.38;;;6.20;99.90;;;;;;5094744;28;20453;-75
2022/05/03 04:56:47;;;;;;;34.78;23.85;;;6.30;99.90;;;;;;5077025;28;20036;-75
2022/05/03 04:59:13;;;;;;;36.35;24.98;;;6.40;99.90;;;;;;5094504;28;20058;-75
2022/05/03 05:01:38;;;;;;;32.42;23.05;;;6.50;99.90;;;;;;5094406;28;20048;-75
2022/05/03 05:04:04;;;;;;;32.03;21.98;;;6.60;99.90;;;;;;5076860;28;20055;-75
2022/05/03 05:06:30;;;;;;;34.50;21.63;;;6.60;99.90;;;;;;5094638;28;20070;-75
2022/05/03 05:08:56;;;;;;;28.25;20.95;;;6.70;99.90;;;;;;5076991;28;20040;-76
2022/05/03 05:11:21;;;;;;;28.67;21.35;;;6.80;99.90;;;;;;5094430;28;20050;-75
2022/05/03 05:13:47;;;;;;;24.33;19.65;;;6.90;99.90;;;;;;5094254;28;20050;-77
2022/05/03 05:16:13;;;;;;;26.15;19.90;;;6.90;99.90;;;;;;5059906;28;20334;-76
2022/05/03 05:18:38;;;;;;;27.17;20.58;;;7.10;99.90;;;;;;5094023;28;20056;-75
2022/05/03 05:21:04;;;;;;;26.90;19.08;;;7.10;99.90;;;;;;5094091;28;20044;-76
2022/05/03 05:23:30;;;;;;;29.50;20.75;;;7.20;99.90;;;;;;5094154;28;20032;-77
2022/05/03 05:25:56;;;;;;;25.23;20.02;;;7.30;99.90;;;;;;5113832;28;20256;-76
2022/05/03 05:28:23;;;;;;;24.88;19.70;;;7.40;99.90;;;;;;5115047;28;20100;-77
2022/05/03 05:30:51;;;;;;;31.48;22.23;;;7.50;99.90;;;;;;5094027;28;20040;-76
2022/05/03 05:33:18;;;;;;;31.85;23.10;;;7.50;99.90;;;;;;5094104;28;20051;-75
2022/05/03 05:35:44;;;;;;;27.92;22.17;;;7.60;99.90;;;;;;5094176;28;20122;-75
2022/05/03 05:38:13;;;;;;;26.45;19.73;;;7.70;99.90;;;;;;5093873;28;20083;-76
2022/05/03 05:40:39;;;;;;;28.95;21.25;;;7.70;99.90;;;;;;5076077;28;20052;-77
2022/05/03 05:43:05;;;;;;;27.10;20.65;;;7.80;99.90;;;;;;5093831;28;20043;-75
2022/05/03 05:45:31;;;;;;;27.52;21.77;;;7.90;99.90;;;;;;5093847;28;20040;-77
2022/05/03 05:47:57;;;;;;;29.85;20.88;;;8.00;99.90;;;;;;5076363;28;20144;-75
2022/05/03 05:50:24;;;;;;;28.05;22.23;;;8.00;99.90;;;;;;5093681;28;20479;-77
2022/05/03 05:55:36;;;;;;;30.17;22.65;;;8.20;99.90;;;;;;5093562;28;20136;-77
2022/05/03 05:58:03;;;;;;;29.90;21.52;;;8.30;99.90;;;;;;5093317;28;20119;-75
2022/05/03 06:00:30;;;;;;;25.30;19.88;;;8.40;99.90;;;;;;5092451;28;20040;-75
2022/05/03 06:02:55;;;;;;;31.92;21.92;;;8.40;99.90;;;;;;5076029;28;20048;-76
2022/05/03 06:05:21;;;;;;;32.90;24.02;;;8.60;99.90;;;;;;5075802;28;20356;-77
2022/05/03 06:07:47;;;;;;;29.88;23.05;;;8.60;99.90;;;;;;5075820;28;20112;-77
2022/05/03 06:10:13;;;;;;;28.05;21.30;;;8.70;99.90;;;;;;5075602;28;20125;-75
2022/05/03 06:12:39;;;;;;;27.27;21.27;;;8.70;99.90;;;;;;5093218;28;20080;-76
2022/05/03 06:15:06;;;;;;;27.75;21.58;;;8.80;99.90;;;;;;5093303;28;20083;-75
2022/05/03 06:17:31;;;;;;;29.48;21.88;;;8.80;99.90;;;;;;5093435;28;20051;-75
2022/05/03 06:19:57;;;;;;;29.75;20.88;;;8.90;99.90;;;;;;5093115;28;20353;-77
2022/05/03 06:22:23;;;;;;;25.45;20.15;;;8.90;99.90;;;;;;5075857;28;20056;-76
2022/05/03 06:24:50;;;;;;;26.08;21.10;;;9.00;99.90;;;;;;5075426;28;20051;-76
2022/05/03 06:27:16;;;;;;;23.00;18.90;;;9.00;99.90;;;;;;5093010;28;20460;-76
2022/05/03 06:29:42;;;;;;;29.25;21.40;;;9.00;99.90;;;;;;5093245;28;20051;-75
2022/05/03 06:32:11;;;;;;;26.10;21.30;;;9.10;99.90;;;;;;5093314;28;20349;-77
2022/05/03 06:34:38;;;;;;;29.90;21.42;;;9.10;99.90;;;;;;5093083;28;20122;-76
2022/05/03 06:37:04;;;;;;;26.70;20.52;;;9.10;99.90;;;;;;5093323;28;20345;-76
2022/05/03 06:39:30;;;;;;;27.65;20.42;;;9.20;99.90;;;;;;5093047;28;20098;-75
2022/05/03 06:41:56;;;;;;;27.38;20.33;;;9.10;99.90;;;;;;5093143;28;20519;-75
2022/05/03 06:44:22;;;;;;;27.58;21.65;;;9.20;99.90;;;;;;5092964;28;20024;-76
2022/05/03 06:46:49;;;;;;;26.13;19.52;;;9.20;99.90;;;;;;5075505;28;20441;-76
2022/05/03 06:49:15;;;;;;;24.00;19.75;;;9.20;99.90;;;;;;5092996;28;20109;-76
2022/05/03 06:51:41;;;;;;;27.42;21.17;;;9.30;99.90;;;;;;5077391;28;20448;-76
2022/05/03 06:54:07;;;;;;;28.52;21.02;;;9.30;99.90;;;;;;5096281;28;20040;-76
2022/05/03 06:56:35;;;;;;;32.88;22.90;;;9.40;99.90;;;;;;5092858;28;20129;-77
2022/05/03 06:59:08;;;;;;;29.98;22.15;;;9.40;99.90;;;;;;5074932;28;20048;-75
2022/05/03 07:01:34;;;;;;;35.85;24.95;;;9.40;99.90;;;;;;5075154;28;20051;-75
2022/05/03 07:04:00;;;;;;;39.60;26.85;;;9.50;99.90;;;;;;5092974;28;20337;-75
2022/05/03 07:06:26;;;;;;;35.88;25.98;;;9.50;99.90;;;;;;5074720;28;20387;-76
2022/05/03 07:08:52;;;;;;;42.65;28.00;;;9.50;99.90;;;;;;5092662;28;20455;-76
2022/05/03 07:11:18;;;;;;;38.15;26.23;;;9.60;99.90;;;;;;5074603;28;20433;-77
2022/05/03 07:13:44;;;;;;;54.40;31.13;;;9.60;99.90;;;;;;5092405;28;20048;-75
2022/05/03 07:16:10;;;;;;;55.58;33.47;;;9.70;99.90;;;;;;5108207;28;20040;-77
2022/05/03 07:24:06;;;;;;;56.30;34.67;;;9.80;99.90;;;;;;5092437;28;20048;-75
2022/05/03 07:26:32;;;;;;;51.60;32.05;;;9.80;99.90;;;;;;5074373;28;20052;-76
2022/05/03 07:28:58;;;;;;;52.50;31.17;;;9.90;99.90;;;;;;5074859;28;20048;-75
2022/05/03 07:31:25;;;;;;;46.50;29.10;;;9.90;99.90;;;;;;5074829;28;20047;-80
2022/05/03 07:33:51;;;;;;;48.28;26.83;;;10.00;99.90;;;;;;5088038;28;20040;-78
2022/05/03 07:36:20;;;;;;;46.22;26.35;;;10.00;99.90;;;;;;5071784;28;20040;-77
2022/05/03 07:38:46;;;;;;;46.40;27.45;;;10.00;99.90;;;;;;5073514;28;20032;-77
2022/05/03 07:41:13;;;;;;;43.58;25.58;;;10.00;99.90;;;;;;5091641;28;20044;-78
2022/05/03 07:43:40;;;;;;;54.47;28.27;;;10.00;99.90;;;;;;5092328;28;20035;-77
2022/05/03 07:46:06;;;;;;;39.78;25.13;;;10.10;99.90;;;;;;5074403;28;20044;-77
2022/05/03 07:48:31;;;;;;;50.00;28.05;;;10.10;99.90;;;;;;5092142;28;20126;-77
2022/05/03 07:50:57;;;;;;;46.75;27.48;;;10.10;99.90;;;;;;5092048;28;20040;-78
2022/05/03 07:53:23;;;;;;;46.22;25.90;;;10.20;99.90;;;;;;5092096;28;20353;-77
2022/05/03 07:55:50;;;;;;;45.50;25.70;;;10.20;99.90;;;;;;5074363;28;20051;-78
2022/05/03 07:58:18;;;;;;;39.72;24.95;;;10.30;99.90;;;;;;5092332;28;20043;-78
2022/05/03 08:00:44;;;;;;;37.63;23.10;;;10.30;99.90;;;;;;5091492;28;20480;-77
2022/05/03 08:03:10;;;;;;;29.42;19.48;;;10.40;99.90;;;;;;5091869;28;20448;-76
2022/05/03 08:05:36;;;;;;;24.40;15.82;;;10.40;99.90;;;;;;5098167;28;20127;-77
2022/05/03 08:08:02;;;;;;;21.02;14.23;;;10.50;99.90;;;;;;5095111;28;20048;-75
2022/05/03 08:10:27;;;;;;;18.92;12.15;;;10.50;99.90;;;;;;5112188;28;20079;-75
2022/05/03 08:12:53;;;;;;;18.85;11.82;;;10.50;99.90;;;;;;5094610;28;20048;-77
2022/05/03 08:15:20;;;;;;;17.27;10.38;;;10.40;99.90;;;;;;5112260;28;20035;-77
2022/05/03 08:17:48;;;;;;;13.93;8.55;;;10.40;99.90;;;;;;5109955;28;20036;-76
2022/05/03 08:20:14;;;;;;;16.50;8.90;;;10.30;99.90;;;;;;5096344;28;20143;-75
2022/05/03 08:22:42;;;;;;;18.60;9.70;;;10.30;99.90;;;;;;5095455;28;20047;-78
2022/05/03 08:25:08;;;;;;;16.58;8.65;;;10.30;99.90;;;;;;5095744;28;20127;-78
2022/05/03 08:27:37;;;;;;;14.43;7.30;;;10.30;99.90;;;;;;5095628;28;20040;-78
2022/05/03 08:30:03;;;;;;;13.93;7.15;;;10.30;99.90;;;;;;5077587;28;20044;-78
2022/05/03 08:32:30;;;;;;;17.58;8.30;;;10.30;99.90;;;;;;5095321;28;20112;-77
2022/05/03 08:34:55;;;;;;;18.65;7.47;;;10.40;99.90;;;;;;5095222;28;20078;-76
2022/05/03 08:42:51;;;;;;;19.50;8.73;;;10.50;99.90;;;;;;5095237;28;20495;-75
2022/05/03 08:45:19;;;;;;;20.38;8.43;;;10.50;99.90;;;;;;5095206;28;20119;-77
2022/05/03 08:47:47;;;;;;;19.38;8.02;;;10.50;99.90;;;;;;5095159;28;20047;-76
2022/05/03 08:50:22;;;;;;;22.92;8.82;;;10.50;99.90;;;;;;5077431;28;20131;-77
2022/05/03 08:53:01;;;;;;;21.60;8.30;;;10.60;99.90;;;;;;5094938;28;20042;-75
2022/05/03 08:55:27;;;;;;;17.92;9.10;;;10.60;99.90;;;;;;5077228;28;20450;-77
2022/05/03 08:57:53;;;;;;;24.70;9.55;;;10.60;99.90;;;;;;5077267;28;20123;-77
2022/05/03 09:00:20;;;;;;;22.25;8.73;;;10.60;99.90;;;;;;5094911;28;20044;-76
2022/05/03 09:02:49;;;;;;;19.98;9.10;;;10.70;99.90;;;;;;5094797;28;20075;-80
2022/05/03 09:05:16;;;;;;;25.33;9.43;;;10.70;99.90;;;;;;5094886;28;20047;-77
2022/05/03 09:07:54;;;;;;;25.02;9.25;;;10.60;99.90;;;;;;5076934;28;20122;-75
2022/05/03 09:10:33;;;;;;;22.58;8.95;;;10.60;99.90;;;;;;5094774;28;20105;-77
2022/05/03 09:13:22;;;;;;;19.73;9.40;;;10.60;99.90;;;;;;5094720;28;20050;-76
2022/05/03 09:15:55;;;;;;;22.40;9.50;;;10.60;99.90;;;;;;5094778;28;20039;-78
2022/05/03 09:18:29;;;;;;;26.75;9.63;;;10.60;99.90;;;;;;5090781;28;20102;-77
2022/05/03 09:23:51;;;;;;;22.33;10.05;;;10.70;99.90;;;;;;5094476;28;20062;-76
2022/05/03 09:26:23;;;;;;;26.60;8.77;;;10.70;99.90;;;;;;5060153;28;20055;-78
2022/05/03 09:28:53;;;;;;;26.33;9.30;;;10.70;99.90;;;;;;5094362;28;20131;-77
2022/05/03 09:31:48;;;;;;;23.63;9.73;;;10.80;99.90;;;;;;5076382;28;20081;-79
2022/05/03 09:34:22;;;;;;;27.25;8.88;;;10.80;99.90;;;;;;5094196;28;20075;-77
2022/05/03 09:36:51;;;;;;;23.98;8.27;;;10.80;99.90;;;;;;5094182;28;20044;-76
2022/05/03 09:39:31;;;;;;;28.20;9.48;;;10.70;99.90;;;;;;5076582;28;20490;-77
2022/05/03 09:42:16;;;;;;;20.25;7.90;;;10.70;99.90;;;;;;5094257;28;20044;-78
2022/05/03 09:44:55;;;;;;;23.40;7.80;;;10.60;99.90;;;;;;5094339;28;20335;-77
2022/05/03 09:47:26;;;;;;;28.63;7.80;;;10.70;99.90;;;;;;5093892;28;20040;-77
2022/05/03 09:49:52;;;;;;;23.70;7.63;;;10.70;99.90;;;;;;5076432;28;20043;-78
2022/05/03 09:52:38;;;;;;;20.92;6.90;;;10.70;99.90;;;;;;5093837;28;20116;-77
2022/05/03 09:55:09;;;;;;;19.42;6.63;;;10.70;99.90;;;;;;5093836;28;20324;-78
2022/05/03 09:57:40;;;;;;;18.05;7.25;;;10.70;99.90;;;;;;5073186;28;20093;-78
2022/05/03 10:00:11;;;;;;;24.58;7.68;;;10.80;99.90;;;;;;5093555;28;20330;-77
2022/05/03 10:02:40;;;;;;;22.58;6.75;;;10.80;99.90;;;;;;5072737;28;20483;-77
2022/05/03 10:05:07;;;;;;;19.48;6.28;;;11.00;99.90;;;;;;5075894;28;20368;-79
2022/05/03 10:07:35;;;;;;;19.48;6.25;;;11.00;99.90;;;;;;5073127;28;20048;-77
2022/05/03 10:10:07;;;;;;;24.70;6.72;;;11.20;99.90;;;;;;5093788;28;20040;-77
2022/05/03 10:12:35;;;;;;;21.85;7.00;;;11.30;99.90;;;;;;5093385;28;20055;-76
2022/05/03 10:15:01;;;;;;;21.00;6.15;;;11.30;99.90;;;;;;5075798;28;20044;-78
2022/05/03 10:23:28;;;;;;;16.13;5.80;;;11.60;99.90;;;;;;5092977;28;20377;-78
2022/05/03 10:26:01;;;;;;;20.52;5.60;;;11.70;99.90;;;;;;5093375;28;20040;-78
2022/05/03 10:29:04;;;;;;;17.23;5.30;;;11.80;99.90;;;;;;5093399;28;20055;-79
2022/05/03 10:31:31;;;;;;;15.57;5.15;;;11.80;99.90;;;;;;5075763;28;20127;-78
2022/05/03 10:33:57;;;;;;;13.65;5.28;;;11.90;99.90;;;;;;5075521;28;20063;-77
2022/05/03 10:36:32;;;;;;;16.10;5.03;;;11.90;99.90;;;;;;5075392;28;20054;-77
2022/05/03 10:39:05;;;;;;;12.85;4.20;;;12.00;99.90;;;;;;5093236;28;20314;-77
2022/05/03 10:41:50;;;;;;;11.43;4.05;;;12.10;99.90;;;;;;5093193;28;20349;-78
2022/05/03 10:44:42;;;;;;;10.05;4.50;;;12.20;99.90;;;;;;5075360;28;20437;-77
2022/05/03 10:47:09;;;;;;;10.43;4.13;;;12.40;99.90;;;;;;5093016;28;20386;-79
2022/05/03 10:49:55;;;;;;;13.93;4.20;;;12.50;99.90;;;;;;5093127;28;20148;-76
2022/05/03 10:52:21;;;;;;;10.35;3.63;;;12.60;99.90;;;;;;5075067;28;20048;-78
2022/05/03 10:55:05;;;;;;;9.25;3.60;;;12.60;99.90;;;;;;5058644;28;20132;-76
2022/05/03 10:57:30;;;;;;;15.07;4.22;;;12.70;99.90;;;;;;5092963;28;20419;-77
2022/05/03 10:59:57;;;;;;;8.90;4.00;;;12.80;99.90;;;;;;5093049;28;20433;-76
2022/05/03 11:02:23;;;;;;;11.38;4.18;;;12.90;99.90;;;;;;5074312;28;20261;-77
2022/05/03 11:05:16;;;;;;;10.18;3.80;;;13.20;99.90;;;;;;5092689;28;20051;-77
2022/05/03 11:08:16;;;;;;;9.70;3.90;;;13.30;99.90;;;;;;5098018;28;20051;-78
2022/05/03 11:10:43;;;;;;;7.68;3.63;;;13.30;99.90;;;;;;5093632;28;20127;-77
2022/05/03 11:13:37;;;;;;;9.55;3.20;;;13.30;99.90;;;;;;5092516;28;20039;-77
2022/05/03 11:16:23;;;;;;;9.48;3.95;;;13.40;99.90;;;;;;5094374;28;20079;-77
2022/05/03 11:18:49;;;;;;;10.25;3.53;;;13.70;99.90;;;;;;5093355;28;20059;-78
2022/05/03 11:21:16;;;;;;;14.30;4.18;;;13.80;99.90;;;;;;5092523;28;20094;-77
2022/05/03 11:23:53;;;;;;;10.63;3.28;;;14.00;99.90;;;;;;5074890;28;20123;-77
2022/05/03 11:26:20;;;;;;;15.60;4.50;;;14.00;99.90;;;;;;5058867;28;20036;-77
2022/05/03 11:28:50;;;;;;;8.60;3.50;;;14.10;99.90;;;;;;5092078;28;20066;-78
2022/05/03 11:31:18;;;;;;;15.98;4.38;;;14.10;99.90;;;;;;5093457;28;20044;-77
2022/05/03 11:33:51;;;;;;;9.00;3.50;;;14.00;99.90;;;;;;5092538;28;20457;-78
2022/05/03 11:36:17;;;;;;;12.35;3.55;;;14.00;99.90;;;;;;5092449;28;20055;-77
2022/05/03 11:38:43;;;;;;;8.48;3.22;;;13.90;99.90;;;;;;5074785;28;20075;-77
2022/05/03 11:41:10;;;;;;;6.95;2.85;;;13.80;99.90;;;;;;5092196;28;20040;-77
2022/05/03 11:43:36;;;;;;;9.18;3.80;;;13.90;99.90;;;;;;5074867;28;20091;-77
2022/05/03 11:46:02;;;;;;;11.45;4.13;;;14.00;99.90;;;;;;5092556;28;20355;-77
2022/05/03 11:48:28;;;;;;;8.27;3.72;;;14.00;99.90;;;;;;5092341;28;20040;-77
2022/05/03 11:56:24;;;;;;;13.43;4.28;;;13.80;99.90;;;;;;5093405;28;20128;-76
2022/05/03 11:58:50;;;;;;;9.82;3.38;;;13.70;99.90;;;;;;5078444;28;20058;-76
2022/05/03 12:01:16;;;;;;;8.05;3.10;;;13.80;99.90;;;;;;5078241;28;20051;-77
2022/05/03 12:03:49;;;;;;;9.30;3.08;;;13.90;99.90;;;;;;5096873;28;20140;-81
2022/05/03 12:06:15;;;;;;;5.95;3.22;;;14.00;99.90;;;;;;5078191;28;20038;-76
2022/05/03 12:08:43;;;;;;;10.18;4.07;;;14.00;99.90;;;;;;5095997;28;20040;-78
2022/05/03 12:11:24;;;;;;;9.57;3.50;;;14.00;99.90;;;;;;5078222;28;20138;-78
2022/05/03 12:13:50;;;;;;;12.98;3.63;;;13.80;99.90;;;;;;5093469;28;20047;-77
2022/05/03 12:16:21;;;;;;;7.28;3.05;;;13.70;99.90;;;;;;5095761;28;20352;-77
2022/05/03 12:18:48;;;;;;;6.82;3.30;;;13.70;99.90;;;;;;5092427;28;20062;-80
2022/05/03 12:21:17;;;;;;;9.20;2.92;;;13.70;99.90;;;;;;5095919;28;20100;-78
2022/05/03 12:23:46;;;;;;;9.60;3.40;;;13.70;99.90;;;;;;5095806;28;20044;-78
2022/05/03 12:26:22;;;;;;;8.82;3.30;;;13.80;99.90;;;;;;5095679;28;20043;-78
2022/05/03 12:28:58;;;;;;;8.25;3.17;;;13.80;99.90;;;;;;5095734;28;20047;-77
2022/05/03 12:31:34;;;;;;;9.43;3.15;;;14.00;99.90;;;;;;5095708;28;20036;-78
2022/05/03 12:34:01;;;;;;;7.43;3.58;;;14.10;99.90;;;;;;5095655;28;20097;-76
2022/05/03 12:36:40;;;;;;;9.20;2.90;;;14.10;99.90;;;;;;5077739;28;20052;-77
2022/05/03 12:39:10;;;;;;;8.45;3.40;;;14.10;99.90;;;;;;5095649;28;20356;-78
2022/05/03 12:41:37;;;;;;;10.02;3.15;;;14.10;99.90;;;;;;5095576;28;20044;-77
2022/05/03 12:44:05;;;;;;;10.88;3.08;;;14.10;99.90;;;;;;5076235;28;20109;-78
2022/05/03 12:46:31;;;;;;;10.07;3.15;;;14.10;99.90;;;;;;5069732;28;20036;-76
2022/05/03 12:49:00;;;;;;;8.73;2.97;;;14.10;99.90;;;;;;5074859;28;20055;-76
2022/05/03 12:51:26;;;;;;;12.65;2.92;;;14.10;99.90;;;;;;5086133;28;20051;-74
2022/05/03 12:53:52;;;;;;;11.50;3.95;;;14.30;99.90;;;;;;5095081;28;20040;-73
2022/05/03 12:59:02;;;;;;;8.57;2.97;;;14.50;99.90;;;;;;5095264;28;20196;-74
2022/05/03 13:01:28;;;;;;;8.25;3.00;;;14.60;99.90;;;;;;5095017;28;20491;-74
2022/05/03 13:03:54;;;;;;;7.43;3.15;;;14.80;99.90;;;;;;5095067;28;20044;-75
2022/05/03 13:06:20;;;;;;;5.90;2.80;;;15.10;99.90;;;;;;5077028;28;20035;-75
2022/05/03 13:08:47;;;;;;;6.82;2.60;;;15.20;99.90;;;;;;5094096;28;20101;-75
2022/05/03 13:11:13;;;;;;;6.38;2.50;;;15.10;99.90;;;;;;5094383;28;20051;-73
2022/05/03 13:13:39;;;;;;;9.52;2.78;;;15.10;99.90;;;;;;5094844;28;20437;-75
2022/05/03 13:16:05;;;;;;;7.20;2.90;;;15.00;99.90;;;;;;5094719;28;20046;-76
2022/05/03 13:18:31;;;;;;;6.13;2.25;;;14.80;99.90;;;;;;5094380;28;20040;-75
2022/05/03 13:20:57;;;;;;;6.85;2.80;;;14.60;99.90;;;;;;5094373;28;20074;-75
2022/05/03 13:23:22;;;;;;;7.20;2.72;;;14.30;99.90;;;;;;5094747;28;20052;-75
2022/05/03 13:25:48;;;;;;;7.45;2.78;;;14.20;99.90;;;;;;5094435;28;20464;-73
2022/05/03 13:28:15;;;;;;;8.30;2.95;;;14.20;99.90;;;;;;5094615;28;20341;-79
2022/05/03 13:30:42;;;;;;;7.32;2.80;;;14.20;99.90;;;;;;5094427;28;20047;-76
2022/05/03 13:33:08;;;;;;;8.55;2.80;;;14.30;99.90;;;;;;5094488;28;20117;-77